Time;durP1;ratioP1;P1;durP2;ratioP2;P2;SDS_P1;SDS_P2;PMS_P1;PMS_P2;Temp;Humidity;BMP_temperature;BMP_pressure;BME280_temperature;BME280_humidity;BME280_pressure;Samples;Min_cycle;Max_cycle;Signal;HPM_P1;HPM_P2
2023/09/05 00:01:50;;;;;;;;;;;;;;;29.99;40.83;94587.78;4909924;29;7259;-65
2023/09/05 00:04:35;;;;;;;;;;;;;;;29.97;40.22;94593.09;4891325;29;7277;-65
2023/09/05 00:07:14;;;;;;;;;;;;;;;29.97;39.90;94589.59;4918366;29;7129;-65
2023/09/05 00:13:44;;;;;;;;;;;;;;;29.96;40.70;94593.63;4874980;29;7247;-64
2023/09/05 00:16:12;;;;;;;;;;;;;;;29.97;41.12;94593.09;4879414;29;7257;-65
2023/09/05 00:18:38;;;;;;;;;;;;;;;29.97;40.39;94595.16;4859436;29;7579;-64
2023/09/05 00:21:41;;;;;;;;;;;;;;;29.97;40.16;94593.09;4877719;29;9202;-64
2023/09/05 00:24:48;;;;;;;;;;;;;;;29.95;40.06;94592.88;4872662;29;7535;-65
2023/09/05 00:27:23;;;;;;;;;;;;;;;29.94;40.93;94591.41;4879547;29;7167;-65
2023/09/05 00:30:16;;;;;;;;;;;;;;;29.95;41.06;94592.88;4876639;29;9046;-64
2023/09/05 00:32:42;;;;;;;;;;;;;;;29.92;40.73;94588.41;4916348;29;7379;-64
2023/09/05 00:35:45;;;;;;;;;;;;;;;29.92;40.30;94585.66;4927316;29;7229;-65
2023/09/05 00:38:11;;;;;;;;;;;;;;;29.93;40.26;94586.41;4888943;29;8780;-65
2023/09/05 00:40:55;;;;;;;;;;;;;;;29.91;40.86;94589.69;4902981;29;7382;-65
2023/09/05 00:43:21;;;;;;;;;;;;;;;29.91;41.25;94581.38;4897826;29;6993;-65
2023/09/05 00:45:52;;;;;;;;;;;;;;;29.92;40.50;94585.66;4888616;29;8483;-65
2023/09/05 00:48:23;;;;;;;;;;;;;;;29.92;40.77;94585.66;4889831;29;9311;-65
2023/09/05 00:50:56;;;;;;;;;;;;;;;29.92;40.60;94580.09;4901312;29;9504;-64
2023/09/05 00:53:30;;;;;;;;;;;;;;;29.91;40.49;94586.16;4927157;29;7204;-65
2023/09/05 00:56:03;;;;;;;;;;;;;;;29.88;40.25;94587.25;4912141;29;7093;-64
2023/09/05 00:58:40;;;;;;;;;;;;;;;29.84;41.54;94587.56;4930961;29;8939;-64
2023/09/05 01:01:17;;;;;;;;;;;;;;;29.85;40.57;94585.53;4912642;29;7252;-65
2023/09/05 01:04:09;;;;;;;;;;;;;;;29.86;41.55;94584.28;4939378;29;7002;-64
2023/09/05 01:06:48;;;;;;;;;;;;;;;29.86;40.32;94584.28;4909465;29;9018;-56
2023/09/05 01:09:32;;;;;;;;;;;;;;;29.87;40.89;94592.03;4934319;29;8793;-56
2023/09/05 01:12:07;;;;;;;;;;;;;;;29.89;40.36;94589.47;4947892;28;7274;-56
2023/09/05 01:14:39;;;;;;;;;;;;;;;29.85;40.38;94594.59;4990221;28;6979;-56
2023/09/05 01:17:06;;;;;;;;;;;;;;;29.85;41.33;94591.84;4996591;28;7354;-56
2023/09/05 01:19:38;;;;;;;;;;;;;;;29.86;40.51;94598.88;4974245;28;9196;-56
2023/09/05 01:22:30;;;;;;;;;;;;;;;29.87;40.64;94594.81;4975503;28;7262;-57
2023/09/05 01:24:58;;;;;;;;;;;;;;;29.86;41.10;94593.34;4984836;28;7026;-56
2023/09/05 01:27:54;;;;;;;;;;;;;;;29.85;41.37;94596.63;4977509;28;9051;-56
2023/09/05 01:30:58;;;;;;;;;;;;;;;29.83;41.05;94594.41;4893758;29;7293;-56
2023/09/05 01:33:54;;;;;;;;;;;;;;;29.83;41.50;94599.94;4881670;29;7474;-56
2023/09/05 01:37:14;;;;;;;;;;;;;;;29.83;40.30;94596.41;4891323;29;7530;-56
2023/09/05 01:40:07;;;;;;;;;;;;;;;29.83;40.36;94590.88;4843786;29;7253;-57
2023/09/05 01:42:43;;;;;;;;;;;;;;;29.82;40.41;94595.66;4839829;29;7274;-56
2023/09/05 01:45:19;;;;;;;;;;;;;;;29.80;41.50;94592.69;4826854;29;9042;-56
2023/09/05 01:47:50;;;;;;;;;;;;;;;29.77;40.48;94582.69;4841690;29;6865;-56
2023/09/05 01:50:19;;;;;;;;;;;;;;;29.80;41.05;94587.13;4840934;29;7278;-56
2023/09/05 01:53:05;;;;;;;;;;;;;;;29.82;41.05;94587.34;4838306;29;7199;-56
2023/09/05 01:55:42;;;;;;;;;;;;;;;29.82;41.38;94590.13;4842164;29;9406;-57
2023/09/05 01:58:10;;;;;;;;;;;;;;;29.79;41.43;94596.75;4841249;29;8015;-56
2023/09/05 02:01:27;;;;;;;;;;;;;;;29.82;41.27;94583.84;4832659;29;9055;-56
2023/09/05 02:04:31;;;;;;;;;;;;;;;29.80;41.53;94593.44;4768028;30;7254;-56
2023/09/05 02:07:13;;;;;;;;;;;;;;;29.79;40.93;94586.41;4805981;29;7347;-57
2023/09/05 02:09:52;;;;;;;;;;;;;;;29.78;41.63;94596.00;4823817;29;8743;-56
2023/09/05 02:12:20;;;;;;;;;;;;;;;29.76;40.58;94598.56;4826090;29;9331;-56
2023/09/05 02:14:55;;;;;;;;;;;;;;;29.76;41.48;94589.50;4819430;29;9081;-60
2023/09/05 02:17:21;;;;;;;;;;;;;;;29.75;41.43;94585.25;4857101;29;7000;-60
2023/09/05 02:19:47;;;;;;;;;;;;;;;29.76;40.72;94586.72;4855522;29;6960;-61
2023/09/05 02:22:13;;;;;;;;;;;;;;;29.76;41.54;94589.50;4856772;29;7046;-61
2023/09/05 02:25:11;;;;;;;;;;;;;;;29.75;40.94;94580.41;4861603;29;6976;-61
2023/09/05 02:27:38;;;;;;;;;;;;;;;29.73;40.82;94588.50;4805840;29;7495;-61
2023/09/05 02:30:07;;;;;;;;;;;;;;;29.73;41.46;94587.78;4787987;29;8954;-61
2023/09/05 02:32:43;;;;;;;;;;;;;;;29.69;40.83;94587.31;4785807;29;6927;-61
2023/09/05 02:35:09;;;;;;;;;;;;;;;29.69;41.84;94584.56;4784395;29;7201;-61
2023/09/05 02:37:36;;;;;;;;;;;;;;;29.72;41.06;94587.03;4787133;29;7047;-61
2023/09/05 02:40:05;;;;;;;;;;;;;;;29.72;40.88;94584.25;4836448;29;7279;-61
2023/09/05 02:42:31;;;;;;;;;;;;;;;29.70;41.48;94588.81;4874759;29;8352;-61
2023/09/05 02:45:00;;;;;;;;;;;;;;;29.71;41.88;94585.50;4879249;29;7062;-62
2023/09/05 02:47:38;;;;;;;;;;;;;;;29.71;41.97;94590.34;4892974;29;7519;-61
2023/09/05 02:50:57;;;;;;;;;;;;;;;29.70;41.50;94583.28;4888374;29;9481;-60
2023/09/05 02:53:34;;;;;;;;;;;;;;;29.68;41.89;94583.06;4879238;29;6987;-61
2023/09/05 02:56:02;;;;;;;;;;;;;;;29.67;40.90;94585.09;4875808;29;7263;-61
2023/09/05 02:58:30;;;;;;;;;;;;;;;29.68;41.33;94588.63;4896493;29;9093;-61
2023/09/05 03:01:15;;;;;;;;;;;;;;;29.67;41.68;94595.44;4873221;29;7175;-61
2023/09/05 03:04:07;;;;;;;;;;;;;;;29.66;40.73;94591.94;4929201;28;7084;-60
2023/09/05 03:06:46;;;;;;;;;;;;;;;29.66;40.77;94603.03;4915127;29;9620;-61
2023/09/05 03:09:35;;;;;;;;;;;;;;;29.64;41.17;94602.06;4915028;29;7245;-60
2023/09/05 03:12:15;;;;;;;;;;;;;;;29.65;41.18;94609.09;4914472;29;8926;-61
2023/09/05 03:15:09;;;;;;;;;;;;;;;29.66;41.67;94599.50;4900699;29;7208;-61
2023/09/05 03:17:45;;;;;;;;;;;;;;;29.65;41.63;94609.09;4918054;29;7255;-61
2023/09/05 03:20:15;;;;;;;;;;;;;;;29.65;41.64;94606.31;4898385;29;7653;-61
2023/09/05 03:22:50;;;;;;;;;;;;;;;29.66;41.83;94610.59;4915764;29;7056;-61
2023/09/05 03:25:52;;;;;;;;;;;;;;;29.64;40.75;94602.06;4898153;29;9123;-67
2023/09/05 03:28:41;;;;;;;;;;;;;;;29.65;41.58;94603.53;4911509;29;6968;-68
2023/09/05 03:31:28;;;;;;;;;;;;;;;29.63;40.97;94606.84;4927014;29;8965;-67
2023/09/05 03:34:15;;;;;;;;;;;;;;;29.64;40.88;94604.84;4928689;28;9532;-67
2023/09/05 03:36:43;;;;;;;;;;;;;;;29.63;42.10;94601.31;4909895;29;7073;-67
2023/09/05 03:39:09;;;;;;;;;;;;;;;29.63;41.15;94609.63;4935996;28;7507;-67
2023/09/05 03:41:52;;;;;;;;;;;;;;;29.61;40.97;94608.66;4935560;28;6971;-67
2023/09/05 03:44:53;;;;;;;;;;;;;;;29.61;41.78;94611.44;4957399;28;9526;-67
2023/09/05 03:47:21;;;;;;;;;;;;;;;29.59;41.29;94611.22;4948043;28;7615;-67
2023/09/05 03:49:51;;;;;;;;;;;;;;;29.61;41.61;94608.66;4971701;28;9294;-67
2023/09/05 03:52:31;;;;;;;;;;;;;;;29.59;41.03;94605.66;4971252;28;6971;-67
2023/09/05 03:55:07;;;;;;;;;;;;;;;29.59;41.18;94611.97;4971367;28;7320;-68
2023/09/05 03:57:35;;;;;;;;;;;;;;;29.60;40.91;94619.00;4971269;28;7002;-67
2023/09/05 04:00:35;;;;;;;;;;;;;;;29.60;41.72;94607.91;4981451;28;7828;-67
2023/09/05 04:03:13;;;;;;;;;;;;;;;29.59;41.33;94609.19;4894918;29;7214;-67
2023/09/05 04:05:48;;;;;;;;;;;;;;;29.59;40.90;94602.91;4935719;28;9094;-67
2023/09/05 04:08:23;;;;;;;;;;;;;;;29.61;41.53;94603.88;4913503;29;9149;-68
2023/09/05 04:14:26;;;;;;;;;;;;;;;29.55;41.16;94594.91;4912034;29;7292;-67
2023/09/05 04:17:22;;;;;;;;;;;;;;;29.56;41.77;94601.94;4902173;29;7005;-67
2023/09/05 04:19:54;;;;;;;;;;;;;;;29.56;42.18;94598.41;4913552;29;7075;-68
2023/09/05 04:22:23;;;;;;;;;;;;;;;29.56;41.82;94598.41;4924179;29;6989;-67
2023/09/05 04:24:57;;;;;;;;;;;;;;;29.57;41.56;94605.47;4913932;29;7599;-67
2023/09/05 04:27:23;;;;;;;;;;;;;;;29.55;41.30;94616.34;4923886;29;7297;-67
2023/09/05 04:29:51;;;;;;;;;;;;;;;29.55;41.70;94611.53;4930108;29;7263;-67
2023/09/05 04:32:26;;;;;;;;;;;;;;;29.53;41.38;94619.66;4915343;29;7257;-66
2023/09/05 04:35:03;;;;;;;;;;;;;;;29.53;41.28;94619.66;4914938;29;7229;-63
2023/09/05 04:37:33;;;;;;;;;;;;;;;29.51;41.53;94621.44;4931042;29;7165;-63
2023/09/05 04:40:26;;;;;;;;;;;;;;;29.51;41.86;94630.53;4946625;28;7354;-63
2023/09/05 04:43:03;;;;;;;;;;;;;;;29.51;42.91;94638.84;4965824;28;7425;-63
2023/09/05 04:46:05;;;;;;;;;;;;;;;29.56;42.87;94645.53;4968417;28;7018;-63
2023/09/05 04:48:34;;;;;;;;;;;;;;;29.56;42.07;94642.75;4888999;29;7233;-63
2023/09/05 04:51:39;;;;;;;;;;;;;;;29.55;41.22;94644.06;4900774;29;9112;-63
2023/09/05 04:54:37;;;;;;;;;;;;;;;29.55;42.02;94649.59;4884533;29;9411;-62
2023/09/05 04:57:16;;;;;;;;;;;;;;;29.53;41.59;94652.16;4887662;29;7034;-63
2023/09/05 04:59:57;;;;;;;;;;;;;;;29.52;41.12;94656.19;4880555;29;7604;-64
2023/09/05 05:02:34;;;;;;;;;;;;;;;29.50;41.84;94653.19;4898110;29;8783;-63
2023/09/05 05:05:02;;;;;;;;;;;;;;;29.49;41.41;94652.44;4892453;29;9058;-63
2023/09/05 05:07:28;;;;;;;;;;;;;;;29.48;41.08;94661.31;4893817;29;7123;-61
2023/09/05 05:09:55;;;;;;;;;;;;;;;29.43;41.29;94659.38;4906337;29;8719;-61
2023/09/05 05:12:20;;;;;;;;;;;;;;;29.45;41.01;94665.88;4881977;29;7056;-61
2023/09/05 05:14:51;;;;;;;;;;;;;;;29.45;40.87;94674.19;4884474;29;6962;-61
2023/09/05 05:17:19;;;;;;;;;;;;;;;29.45;41.01;94674.19;4896599;29;9242;-61
2023/09/05 05:20:23;;;;;;;;;;;;;;;29.47;41.38;94682.00;4908137;29;6982;-61
2023/09/05 05:23:08;;;;;;;;;;;;;;;29.45;41.64;94679.00;4890676;29;9118;-61
2023/09/05 05:25:37;;;;;;;;;;;;;;;29.46;40.93;94677.72;4951142;28;7287;-61
2023/09/05 05:28:34;;;;;;;;;;;;;;;29.45;40.50;94684.56;4937626;28;7025;-61
2023/09/05 05:31:57;;;;;;;;;;;;;;;29.44;41.73;94694.13;4948311;28;8749;-61
2023/09/05 05:34:38;;;;;;;;;;;;;;;29.38;41.43;94687.94;4879153;29;7436;-61
2023/09/05 05:37:04;;;;;;;;;;;;;;;29.38;40.86;94690.72;4864051;29;9600;-61
2023/09/05 05:39:40;;;;;;;;;;;;;;;29.36;41.32;94691.22;4864164;29;7740;-62
2023/09/05 05:42:13;;;;;;;;;;;;;;;29.35;40.18;94686.22;4872364;29;8887;-62
2023/09/05 05:44:56;;;;;;;;;;;;;;;29.34;40.27;94687.50;4861203;29;7384;-63
2023/09/05 05:47:32;;;;;;;;;;;;;;;29.29;40.42;94691.84;4878287;29;7279;-63
2023/09/05 05:53:55;;;;;;;;;;;;;;;29.31;40.32;94685.78;4874644;29;7425;-63
2023/09/05 05:56:53;;;;;;;;;;;;;;;29.28;40.23;94687.59;4874693;29;6995;-63
2023/09/05 05:59:47;;;;;;;;;;;;;;;29.29;39.57;94691.09;4832061;29;8758;-63
2023/09/05 06:02:27;;;;;;;;;;;;;;;29.26;39.25;94692.16;4838535;29;7114;-63
2023/09/05 06:04:55;;;;;;;;;;;;;;;29.27;39.15;94702.72;4865132;28;7341;-63
2023/09/05 06:07:40;;;;;;;;;;;;;;;29.28;39.38;94704.22;4938104;28;7182;-63
2023/09/05 06:10:27;;;;;;;;;;;;;;;29.30;38.97;94695.34;4941380;28;9097;-62
2023/09/05 06:13:11;;;;;;;;;;;;;;;29.31;39.99;94700.38;4922742;29;7320;-63
2023/09/05 06:15:46;;;;;;;;;;;;;;;29.32;39.01;94693.56;4934952;29;7237;-63
2023/09/05 06:18:25;;;;;;;;;;;;;;;29.32;40.22;94692.84;4935872;28;9129;-63
2023/09/05 06:21:01;;;;;;;;;;;;;;;29.31;39.31;94700.38;4929517;28;7847;-63
2023/09/05 06:24:13;;;;;;;;;;;;;;;29.35;39.08;94702.84;4933878;28;7463;-63
2023/09/05 06:26:41;;;;;;;;;;;;;;;29.32;40.12;94699.09;4865268;29;7240;-63
2023/09/05 06:29:37;;;;;;;;;;;;;;;29.31;39.10;94703.16;4850404;29;7135;-63
2023/09/05 06:32:37;;;;;;;;;;;;;;;29.32;40.33;94701.16;4842402;29;7210;-63
2023/09/05 06:35:07;;;;;;;;;;;;;;;29.34;40.01;94706.91;4846009;29;9032;-63
2023/09/05 06:37:58;;;;;;;;;;;;;;;29.32;40.06;94703.91;4861056;29;8966;-63
2023/09/05 06:40:52;;;;;;;;;;;;;;;29.31;39.42;94708.69;4859076;29;7205;-63
2023/09/05 06:43:36;;;;;;;;;;;;;;;29.31;38.96;94702.41;4857995;29;7137;-63
2023/09/05 06:46:35;;;;;;;;;;;;;;;29.27;40.42;94704.75;4855512;29;7349;-63
2023/09/05 06:49:16;;;;;;;;;;;;;;;29.30;40.25;94700.91;4839366;29;9104;-62
2023/09/05 06:52:33;;;;;;;;;;;;;;;29.33;39.80;94699.84;4857708;29;7221;-62
2023/09/05 06:55:18;;;;;;;;;;;;;;;29.35;40.76;94697.31;4788422;29;8758;-62
2023/09/05 06:58:16;;;;;;;;;;;;;;;29.35;40.90;94700.81;4804134;29;6957;-62
2023/09/05 07:00:54;;;;;;;;;;;;;;;29.38;40.95;94696.25;4752411;30;8124;-62
2023/09/05 07:03:34;;;;;;;;;;;;;;;29.41;41.13;94700.72;4754444;30;7792;-62
2023/09/05 07:06:03;;;;;;;;;;;;;;;29.42;40.04;94693.91;4785980;29;7086;-62
2023/09/05 07:08:30;;;;;;;;;;;;;;;29.41;41.15;94695.19;4792909;29;7670;-62
2023/09/05 07:11:13;;;;;;;;;;;;;;;29.36;40.66;94684.94;4817205;29;7025;-62
2023/09/05 07:14:00;;;;;;;;;;;;;;;29.41;40.71;94698.69;4803911;29;9045;-62
2023/09/05 07:16:27;;;;;;;;;;;;;;;29.38;40.86;94690.72;4801297;29;9552;-62
2023/09/05 07:18:53;;;;;;;;;;;;;;;29.42;40.13;94691.16;4785078;29;7156;-61
2023/09/05 07:21:21;;;;;;;;;;;;;;;29.35;40.29;94689.75;4816540;29;7256;-61
2023/09/05 07:23:47;;;;;;;;;;;;;;;29.42;40.49;94699.47;4823745;29;7075;-61
2023/09/05 07:26:18;;;;;;;;;;;;;;;29.38;40.80;94696.25;4854054;29;7988;-61
2023/09/05 07:28:47;;;;;;;;;;;;;;;29.41;40.62;94690.38;4867159;29;8708;-61
2023/09/05 07:31:17;;;;;;;;;;;;;;;29.41;40.77;94686.88;4904029;29;7214;-61
2023/09/05 07:33:48;;;;;;;;;;;;;;;29.43;40.16;94693.38;4913607;29;7172;-62
2023/09/05 07:36:49;;;;;;;;;;;;;;;29.45;40.40;94693.59;4927285;28;9109;-61
2023/09/05 07:39:25;;;;;;;;;;;;;;;29.43;39.92;94703.72;4913648;29;7240;-61
2023/09/05 07:41:56;;;;;;;;;;;;;;;29.44;40.48;94699.69;4901604;29;6926;-62
2023/09/05 07:44:52;;;;;;;;;;;;;;;29.43;40.89;94703.72;4914763;29;7168;-61
2023/09/05 07:47:26;;;;;;;;;;;;;;;29.43;39.79;94709.25;4887604;29;9513;-62
2023/09/05 07:50:03;;;;;;;;;;;;;;;29.42;39.96;94702.22;4905143;29;7319;-61
2023/09/05 07:52:56;;;;;;;;;;;;;;;29.42;39.78;94710.53;4888999;29;7343;-62
2023/09/05 07:55:22;;;;;;;;;;;;;;;29.40;40.33;94707.56;4859933;29;7753;-61
2023/09/05 07:57:51;;;;;;;;;;;;;;;29.38;40.25;94707.34;4896154;29;9079;-61
2023/09/05 08:00:20;;;;;;;;;;;;;;;29.43;40.52;94707.22;4892174;29;6970;-61
2023/09/05 08:02:55;;;;;;;;;;;;;;;29.42;39.77;94707.78;4894867;29;7048;-61
2023/09/05 08:05:25;;;;;;;;;;;;;;;29.39;40.27;94706.03;4901250;29;9094;-61
2023/09/05 08:08:17;;;;;;;;;;;;;;;29.38;39.52;94707.34;4876655;29;9208;-61
2023/09/05 08:10:49;;;;;;;;;;;;;;;29.40;40.06;94710.31;4895360;29;7228;-61
2023/09/05 08:13:17;;;;;;;;;;;;;;;29.38;40.54;94707.34;4889600;29;9611;-61
2023/09/05 08:15:44;;;;;;;;;;;;;;;29.42;40.90;94714.06;4945293;28;8712;-61
2023/09/05 08:18:13;;;;;;;;;;;;;;;29.38;40.24;94708.09;4953346;28;9046;-61
2023/09/05 08:20:42;;;;;;;;;;;;;;;29.36;40.97;94707.84;4933908;28;7363;-61
2023/09/05 08:23:23;;;;;;;;;;;;;;;29.35;40.14;94705.63;4948794;28;8949;-62
2023/09/05 08:25:57;;;;;;;;;;;;;;;29.36;40.23;94704.34;4976046;28;7586;-61
2023/09/05 08:28:26;;;;;;;;;;;;;;;29.38;40.48;94696.25;4977814;28;7463;-62
2023/09/05 08:30:59;;;;;;;;;;;;;;;29.38;40.91;94702.53;4996201;28;9054;-61
2023/09/05 08:33:40;;;;;;;;;;;;;;;29.36;40.14;94705.06;4991891;28;8221;-61
2023/09/05 08:36:11;;;;;;;;;;;;;;;29.40;40.89;94713.09;4987566;28;8878;-61
2023/09/05 08:38:39;;;;;;;;;;;;;;;29.38;40.97;94715.66;4992967;28;7238;-62
2023/09/05 08:41:11;;;;;;;;;;;;;;;29.39;40.17;94703.28;4979115;28;8357;-61
2023/09/05 08:43:56;;;;;;;;;;;;;;;29.35;41.16;94705.63;4983174;28;8186;-62
2023/09/05 08:46:31;;;;;;;;;;;;;;;29.37;40.60;94706.59;4974384;28;8880;-62
2023/09/05 08:49:04;;;;;;;;;;;;;;;29.36;40.50;94704.34;4989490;28;7226;-62
2023/09/05 08:51:52;;;;;;;;;;;;;;;29.38;41.12;94705.31;4990048;28;8525;-62
2023/09/05 08:54:27;;;;;;;;;;;;;;;29.37;39.97;94708.59;4989909;28;7232;-61
2023/09/05 08:56:53;;;;;;;;;;;;;;;29.37;41.06;94705.81;4983508;28;8150;-62
2023/09/05 08:59:44;;;;;;;;;;;;;;;29.37;41.20;94708.59;4970497;28;9162;-62
2023/09/05 09:02:48;;;;;;;;;;;;;;;29.37;39.98;94705.81;4991746;28;7182;-61
2023/09/05 09:05:37;;;;;;;;;;;;;;;29.37;40.18;94701.03;4969009;28;7170;-62
2023/09/05 09:08:13;;;;;;;;;;;;;;;29.35;40.41;94702.84;4993709;28;8774;-62
2023/09/05 09:10:44;;;;;;;;;;;;;;;29.36;40.15;94696.03;4978424;28;7243;-62
2023/09/05 09:13:46;;;;;;;;;;;;;;;29.36;40.22;94693.25;4990390;28;7469;-62
2023/09/05 09:16:42;;;;;;;;;;;;;;;29.37;39.97;94691.97;4912410;29;7312;-62
2023/09/05 09:19:08;;;;;;;;;;;;;;;29.39;40.58;94690.16;4904084;29;7590;-62
2023/09/05 09:22:08;;;;;;;;;;;;;;;29.41;39.92;94693.16;4910163;29;9392;-62
2023/09/05 09:25:23;;;;;;;;;;;;;;;29.38;40.72;94685.91;4909839;29;7215;-63
2023/09/05 09:27:53;;;;;;;;;;;;;;;29.39;40.51;94687.41;4930647;29;7252;-61
2023/09/05 09:30:32;;;;;;;;;;;;;;;29.36;41.02;94676.63;4921471;29;7249;-62
2023/09/05 09:33:20;;;;;;;;;;;;;;;29.41;40.82;94675.78;4928056;29;7237;-62
2023/09/05 09:36:15;;;;;;;;;;;;;;;29.44;40.58;94683.03;4933685;29;9117;-62
2023/09/05 09:38:54;;;;;;;;;;;;;;;29.41;40.60;94679.31;4937213;29;7653;-62
2023/09/05 09:41:31;;;;;;;;;;;;;;;29.46;40.31;94686.78;4915040;29;7391;-62
2023/09/05 09:44:08;;;;;;;;;;;;;;;29.45;41.03;94690.09;4912808;29;8778;-62
2023/09/05 09:46:34;;;;;;;;;;;;;;;29.45;40.42;94684.56;4928445;29;8109;-62
2023/09/05 09:49:30;;;;;;;;;;;;;;;29.43;40.86;94687.06;4936127;28;7064;-63
2023/09/05 09:52:04;;;;;;;;;;;;;;;29.41;40.94;94684.09;4936100;28;7236;-63
2023/09/05 09:54:38;;;;;;;;;;;;;;;29.41;39.70;94673.00;4944209;28;12369;-62
2023/09/05 09:57:12;;;;;;;;;;;;;;;29.42;39.95;94672.50;4949475;28;7222;-62
2023/09/05 10:00:19;;;;;;;;;;;;;;;29.45;39.70;94665.16;4951427;28;7243;-62
2023/09/05 10:02:57;;;;;;;;;;;;;;;29.46;40.42;94674.94;4883819;29;8887;-62
2023/09/05 10:05:24;;;;;;;;;;;;;;;29.41;40.48;94659.91;4899086;29;7370;-62
2023/09/05 10:08:28;;;;;;;;;;;;;;;29.44;40.84;94658.09;4898202;29;7261;-62
2023/09/05 10:10:59;;;;;;;;;;;;;;;29.42;40.44;94661.41;4843593;29;9677;-62
2023/09/05 10:13:41;;;;;;;;;;;;;;;29.42;40.67;94657.88;4863427;29;7244;-62
2023/09/05 10:16:20;;;;;;;;;;;;;;;29.41;40.94;94657.13;4869037;29;9179;-62
2023/09/05 10:18:50;;;;;;;;;;;;;;;29.37;40.72;94650.41;4843505;29;9565;-63
2023/09/05 10:21:40;;;;;;;;;;;;;;;29.40;40.78;94655.66;4847621;29;7301;-63
2023/09/05 10:24:09;;;;;;;;;;;;;;;29.41;40.50;94654.38;4841870;29;13688;-65
2023/09/05 10:26:35;;;;;;;;;;;;;;;29.41;41.13;94657.13;4844900;29;9143;-59
2023/09/05 10:29:39;;;;;;;;;;;;;;;29.44;40.29;94649.78;4863071;29;8858;-59
2023/09/05 10:32:07;;;;;;;;;;;;;;;29.39;40.64;94647.84;4854870;29;7168;-59
2023/09/05 10:34:46;;;;;;;;;;;;;;;29.34;41.04;94648.72;4900820;29;7002;-59
2023/09/05 10:37:18;;;;;;;;;;;;;;;29.33;40.35;94647.97;4906025;29;7822;-59
2023/09/05 10:39:45;;;;;;;;;;;;;;;29.34;40.71;94645.94;4891217;29;6994;-59
2023/09/05 10:42:13;;;;;;;;;;;;;;;29.38;41.22;94638.06;4906731;29;7204;-59
2023/09/05 10:44:44;;;;;;;;;;;;;;;29.38;41.02;94643.59;4923152;28;8618;-61
2023/09/05 10:47:57;;;;;;;;;;;;;;;29.39;41.67;94637.53;4931103;28;7307;-61
2023/09/05 10:50:25;;;;;;;;;;;;;;;29.41;41.10;94639.75;4890735;29;7330;-60
2023/09/05 10:53:43;;;;;;;;;;;;;;;29.43;40.68;94643.50;4892237;29;7018;-61
2023/09/05 10:56:50;;;;;;;;;;;;;;;29.39;40.82;94639.53;4875538;29;7521;-61
2023/09/05 10:59:35;;;;;;;;;;;;;;;29.39;41.39;94636.75;4886303;29;7415;-61
2023/09/05 11:02:08;;;;;;;;;;;;;;;29.42;40.48;94636.47;4875793;29;7662;-60
2023/09/05 11:05:24;;;;;;;;;;;;;;;29.46;40.73;94630.59;4881185;29;9111;-60
2023/09/05 11:08:27;;;;;;;;;;;;;;;29.47;40.80;94623.78;4838175;29;7293;-60
2023/09/05 11:11:04;;;;;;;;;;;;;;;29.50;40.92;94626.25;4823650;29;7483;-60
2023/09/05 11:13:31;;;;;;;;;;;;;;;29.50;40.66;94620.69;4806709;29;7267;-60
2023/09/05 11:16:03;;;;;;;;;;;;;;;29.54;40.60;94626.66;4821268;29;7265;-60
2023/09/05 11:18:34;;;;;;;;;;;;;;;29.53;41.15;94618.91;4820069;29;7429;-60
2023/09/05 11:21:22;;;;;;;;;;;;;;;29.53;41.04;94613.34;4818394;29;7315;-61
2023/09/05 11:23:57;;;;;;;;;;;;;;;29.55;41.30;94619.09;4816841;29;8765;-61
2023/09/05 11:26:38;;;;;;;;;;;;;;;29.57;40.04;94613.78;4819951;29;8434;-61
2023/09/05 11:29:16;;;;;;;;;;;;;;;29.56;40.13;94606.72;4820397;29;7277;-61
2023/09/05 11:31:59;;;;;;;;;;;;;;;29.54;40.45;94603.75;4838918;29;7252;-61
2023/09/05 11:34:36;;;;;;;;;;;;;;;29.57;40.63;94608.22;4823894;29;7321;-62
2023/09/05 11:37:03;;;;;;;;;;;;;;;29.56;40.68;94601.19;4837029;29;7206;-62
2023/09/05 11:39:55;;;;;;;;;;;;;;;29.58;40.85;94599.38;4850566;29;8757;-62
2023/09/05 11:43:08;;;;;;;;;;;;;;;29.57;40.83;94594.38;4838140;29;7252;-62
2023/09/05 11:45:37;;;;;;;;;;;;;;;29.58;40.55;94593.84;4879359;29;7188;-62
2023/09/05 11:48:23;;;;;;;;;;;;;;;29.56;40.16;94593.63;4893778;29;7635;-62
2023/09/05 11:50:50;;;;;;;;;;;;;;;29.59;40.89;94600.13;4890685;29;9181;-61
2023/09/05 11:53:22;;;;;;;;;;;;;;;29.59;40.56;94595.34;4887630;29;7735;-62
2023/09/05 11:55:50;;;;;;;;;;;;;;;29.63;40.72;94595.75;4886942;29;9088;-62
2023/09/05 11:58:18;;;;;;;;;;;;;;;29.64;41.22;94602.06;4877710;29;6987;-62
2023/09/05 12:00:54;;;;;;;;;;;;;;;29.65;40.44;94593.19;4886542;29;7405;-62
2023/09/05 12:03:50;;;;;;;;;;;;;;;29.68;40.23;94594.16;4893792;29;7228;-62
2023/09/05 12:06:17;;;;;;;;;;;;;;;29.68;41.27;94594.91;4809758;29;8141;-62
2023/09/05 12:09:09;;;;;;;;;;;;;;;29.69;41.07;94592.88;4831079;29;7270;-62
2023/09/05 12:11:44;;;;;;;;;;;;;;;29.69;40.91;94584.56;4817948;29;7891;-62
2023/09/05 12:14:11;;;;;;;;;;;;;;;29.69;41.29;94588.06;4823952;29;9357;-62
2023/09/05 12:16:37;;;;;;;;;;;;;;;29.70;41.00;94586.06;4815186;29;7321;-62
2023/09/05 12:19:08;;;;;;;;;;;;;;;29.73;40.89;94582.22;4824887;29;9026;-62
2023/09/05 12:21:46;;;;;;;;;;;;;;;29.73;41.21;94571.13;4833085;29;7382;-62
2023/09/05 12:24:29;;;;;;;;;;;;;;;29.74;41.52;94572.66;4837325;29;8441;-62
2023/09/05 12:27:05;;;;;;;;;;;;;;;29.75;40.98;94569.31;4849801;29;7389;-62
2023/09/05 12:30:13;;;;;;;;;;;;;;;29.76;40.43;94565.28;4855125;29;7258;-62
2023/09/05 12:36:21;;;;;;;;;;;;;;;29.80;40.90;94564.94;4856469;29;7087;-62
2023/09/05 12:39:10;;;;;;;;;;;;;;;29.82;40.67;94567.22;4842120;29;8459;-62
2023/09/05 12:42:04;;;;;;;;;;;;;;;29.85;40.81;94555.78;4848633;29;8722;-62
2023/09/05 12:44:40;;;;;;;;;;;;;;;29.84;40.68;94548.72;4873412;29;7150;-55
2023/09/05 12:47:26;;;;;;;;;;;;;;;29.88;40.88;94549.19;4860348;29;7248;-55
2023/09/05 12:49:54;;;;;;;;;;;;;;;29.89;41.34;94544.34;4858936;29;7008;-56
2023/09/05 12:52:29;;;;;;;;;;;;;;;29.91;40.89;94553.63;4858602;29;7070;-56
2023/09/05 12:55:18;;;;;;;;;;;;;;;29.93;41.14;94547.56;4863769;29;9048;-56
2023/09/05 12:57:53;;;;;;;;;;;;;;;29.93;41.02;94534.44;4871942;29;7557;-56
2023/09/05 13:00:20;;;;;;;;;;;;;;;29.95;41.12;94540.19;4853856;29;6965;-56
2023/09/05 13:02:48;;;;;;;;;;;;;;;29.95;41.24;94531.88;4857602;29;7235;-56
2023/09/05 13:05:33;;;;;;;;;;;;;;;29.98;41.15;94538.38;4872900;29;7329;-56
2023/09/05 13:08:00;;;;;;;;;;;;;;;30.01;40.90;94540.09;4872685;29;7355;-56
2023/09/05 13:10:44;;;;;;;;;;;;;;;30.06;40.94;94539.22;4858825;29;8796;-56
2023/09/05 13:13:24;;;;;;;;;;;;;;;30.04;40.80;94528.66;4857097;29;8074;-56
2023/09/05 13:15:50;;;;;;;;;;;;;;;30.09;40.76;94529.81;4859378;29;7133;-56
2023/09/05 13:18:51;;;;;;;;;;;;;;;30.09;41.76;94525.03;4870432;29;10291;-56
2023/09/05 13:21:30;;;;;;;;;;;;;;;30.09;41.88;94519.47;4892509;28;7003;-56
2023/09/05 13:24:16;;;;;;;;;;;;;;;30.13;41.01;94522.66;4952286;28;7188;-56
2023/09/05 13:27:25;;;;;;;;;;;;;;;30.16;41.67;94523.63;4933140;28;7348;-56
2023/09/05 13:29:51;;;;;;;;;;;;;;;30.16;41.46;94512.50;4948186;28;8777;-56
2023/09/05 13:32:17;;;;;;;;;;;;;;;30.16;40.89;94518.06;4936256;28;7073;-56
2023/09/05 13:34:46;;;;;;;;;;;;;;;30.19;41.64;94505.91;4949570;28;7062;-56
2023/09/05 13:37:34;;;;;;;;;;;;;;;30.20;41.33;94508.13;4936060;28;7301;-56
2023/09/05 13:40:03;;;;;;;;;;;;;;;30.22;41.11;94502.03;4946582;28;7212;-56
2023/09/05 13:42:37;;;;;;;;;;;;;;;30.22;41.71;94483.34;4943414;28;7336;-56
2023/09/05 13:45:13;;;;;;;;;;;;;;;30.23;41.39;94490.38;4952603;28;7322;-56
2023/09/05 13:47:50;;;;;;;;;;;;;;;30.26;40.58;94483.75;4943007;28;7242;-56
2023/09/05 13:50:20;;;;;;;;;;;;;;;30.30;41.02;94489.72;4947566;28;9194;-56
2023/09/05 13:52:55;;;;;;;;;;;;;;;30.32;41.31;94478.84;4953295;28;8769;-56
2023/09/05 13:55:49;;;;;;;;;;;;;;;30.35;41.73;94480.56;4936284;28;7032;-60
2023/09/05 13:58:31;;;;;;;;;;;;;;;30.37;41.61;94471.69;4952761;28;7242;-60
2023/09/05 14:01:13;;;;;;;;;;;;;;;30.38;41.46;94473.19;4933051;28;7642;-60
2023/09/05 14:03:50;;;;;;;;;;;;;;;30.40;41.23;94471.38;4946700;28;8862;-60
2023/09/05 14:06:20;;;;;;;;;;;;;;;30.43;40.86;94469.50;4937322;28;7226;-59
2023/09/05 14:09:16;;;;;;;;;;;;;;;30.44;41.79;94468.25;4939406;28;9163;-60
2023/09/05 14:11:54;;;;;;;;;;;;;;;30.46;40.76;94468.44;4865492;29;9121;-60
2023/09/05 14:14:22;;;;;;;;;;;;;;;30.46;40.59;94471.97;4876944;29;7315;-60
2023/09/05 14:16:53;;;;;;;;;;;;;;;30.48;40.99;94471.41;4862253;29;9243;-60
2023/09/05 14:19:28;;;;;;;;;;;;;;;30.50;41.11;94475.16;4860298;29;9202;-60